sensor_id;sensor_type;location;lat;lon;timestamp;pressure;altitude;pressure_sealevel;temperature;humidity
48846;BME280;34665;51.886;5.436;2023-03-14T00:01:16;98735.78;;;18.08;100.00
48846;BME280;34665;51.886;5.436;2023-03-14T00:03:42;98744.44;;;17.90;100.00
48846;BME280;34665;51.886;5.436;2023-03-14T00:06:08;98748.38;;;17.98;100.00
48846;BME280;34665;51.886;5.436;2023-03-14T00:08:34;98739.97;;;18.00;100.00
48846;BME280;34665;51.886;5.436;2023-03-14T00:11:06;98747.00;;;18.01;100.00
48846;BME280;34665;51.886;5.436;2023-03-14T00:13:32;98732.94;;;17.66;100.00
48846;BME280;34665;51.886;5.436;2023-03-14T00:16:15;98739.72;;;17.82;100.00
48846;BME280;34665;51.886;5.436;2023-03-14T00:18:41;98741.69;;;18.43;100.00
48846;BME280;34665;51.886;5.436;2023-03-14T00:21:06;98736.25;;;18.43;100.00
48846;BME280;34665;51.886;5.436;2023-03-14T00:23:34;98741.41;;;18.11;100.00
48846;BME280;34665;51.886;5.436;2023-03-14T00:25:59;98755.06;;;17.68;100.00
48846;BME280;34665;51.886;5.436;2023-03-14T00:28:26;98745.44;;;17.61;100.00
48846;BME280;34665;51.886;5.436;2023-03-14T00:30:51;98740.84;;;17.43;100.00
48846;BME280;34665;51.886;5.436;2023-03-14T00:33:17;98760.06;;;16.73;100.00
48846;BME280;34665;51.886;5.436;2023-03-14T00:35:42;98750.63;;;17.19;100.00
48846;BME280;34665;51.886;5.436;2023-03-14T00:38:07;98754.03;;;17.25;100.00
48846;BME280;34665;51.886;5.436;2023-03-14T00:40:33;98754.47;;;17.13;100.00
48846;BME280;34665;51.886;5.436;2023-03-14T00:42:59;98769.97;;;17.27;100.00
48846;BME280;34665;51.886;5.436;2023-03-14T00:45:25;98769.59;;;16.90;100.00
48846;BME280;34665;51.886;5.436;2023-03-14T00:47:51;98756.38;;;17.13;100.00
48846;BME280;34665;51.886;5.436;2023-03-14T00:50:17;98765.66;;;17.26;100.00
48846;BME280;34665;51.886;5.436;2023-03-14T00:52:44;98755.53;;;17.37;100.00
48846;BME280;34665;51.886;5.436;2023-03-14T00:55:11;98765.06;;;17.86;100.00
48846;BME280;34665;51.886;5.436;2023-03-14T00:57:36;98752.50;;;17.19;100.00
48846;BME280;34665;51.886;5.436;2023-03-14T01:00:02;98745.69;;;17.02;100.00
48846;BME280;34665;51.886;5.436;2023-03-14T01:02:30;98735.50;;;17.38;100.00
48846;BME280;34665;51.886;5.436;2023-03-14T01:04:56;98753.69;;;17.13;100.00
48846;BME280;34665;51.886;5.436;2023-03-14T01:07:22;98765.81;;;16.37;100.00
48846;BME280;34665;51.886;5.436;2023-03-14T01:09:49;98757.69;;;16.91;100.00
48846;BME280;34665;51.886;5.436;2023-03-14T01:12:16;98748.16;;;16.74;100.00
48846;BME280;34665;51.886;5.436;2023-03-14T01:14:42;98764.75;;;16.62;100.00
48846;BME280;34665;51.886;5.436;2023-03-14T01:17:07;98771.06;;;16.53;100.00
48846;BME280;34665;51.886;5.436;2023-03-14T01:19:33;98754.31;;;16.80;100.00
48846;BME280;34665;51.886;5.436;2023-03-14T01:21:58;98759.53;;;16.96;100.00
48846;BME280;34665;51.886;5.436;2023-03-14T01:24:24;98750.31;;;16.24;100.00
48846;BME280;34665;51.886;5.436;2023-03-14T01:26:49;98760.78;;;16.30;100.00
48846;BME280;34665;51.886;5.436;2023-03-14T01:29:14;98769.59;;;16.66;100.00
48846;BME280;34665;51.886;5.436;2023-03-14T01:31:40;98777.91;;;16.15;100.00
48846;BME280;34665;51.886;5.436;2023-03-14T01:34:05;98764.81;;;15.98;100.00
48846;BME280;34665;51.886;5.436;2023-03-14T01:36:32;98767.84;;;16.26;100.00
48846;BME280;34665;51.886;5.436;2023-03-14T01:39:00;98757.84;;;16.27;100.00
48846;BME280;34665;51.886;5.436;2023-03-14T01:41:25;98759.81;;;16.16;100.00
48846;BME280;34665;51.886;5.436;2023-03-14T01:43:52;98752.75;;;15.90;100.00
48846;BME280;34665;51.886;5.436;2023-03-14T01:46:22;98753.72;;;15.65;100.00
48846;BME280;34665;51.886;5.436;2023-03-14T01:51:25;98766.97;;;16.31;100.00
48846;BME280;34665;51.886;5.436;2023-03-14T01:53:51;98759.25;;;16.19;100.00
48846;BME280;34665;51.886;5.436;2023-03-14T01:56:18;98760.84;;;15.85;100.00
48846;BME280;34665;51.886;5.436;2023-03-14T01:58:45;98746.78;;;15.99;100.00
48846;BME280;34665;51.886;5.436;2023-03-14T02:01:13;98759.63;;;16.37;100.00
48846;BME280;34665;51.886;5.436;2023-03-14T02:03:44;98751.47;;;16.12;100.00
48846;BME280;34665;51.886;5.436;2023-03-14T02:06:12;98743.88;;;15.90;100.00
48846;BME280;34665;51.886;5.436;2023-03-14T02:08:40;98742.59;;;15.77;100.00
48846;BME280;34665;51.886;5.436;2023-03-14T02:11:12;98748.13;;;15.96;100.00
48846;BME280;34665;51.886;5.436;2023-03-14T02:13:50;98739.38;;;15.75;100.00
48846;BME280;34665;51.886;5.436;2023-03-14T02:16:55;98726.53;;;15.61;100.00
48846;BME280;34665;51.886;5.436;2023-03-14T02:22:29;98724.63;;;16.02;100.00
48846;BME280;34665;51.886;5.436;2023-03-14T02:27:24;98713.31;;;16.29;100.00
48846;BME280;34665;51.886;5.436;2023-03-14T02:29:55;98719.44;;;16.35;100.00
48846;BME280;34665;51.886;5.436;2023-03-14T02:32:23;98714.22;;;16.19;100.00
48846;BME280;34665;51.886;5.436;2023-03-14T02:34:52;98706.16;;;16.14;100.00
48846;BME280;34665;51.886;5.436;2023-03-14T02:37:19;98705.81;;;15.97;100.00
48846;BME280;34665;51.886;5.436;2023-03-14T02:39:46;98707.25;;;15.84;100.00
48846;BME280;34665;51.886;5.436;2023-03-14T02:42:15;98706.72;;;15.82;100.00
48846;BME280;34665;51.886;5.436;2023-03-14T02:44:54;98715.78;;;15.96;100.00
48846;BME280;34665;51.886;5.436;2023-03-14T02:47:22;98693.38;;;16.01;100.00
48846;BME280;34665;51.886;5.436;2023-03-14T02:49:58;98707.34;;;15.68;100.00
48846;BME280;34665;51.886;5.436;2023-03-14T02:52:25;98692.38;;;15.86;100.00
48846;BME280;34665;51.886;5.436;2023-03-14T02:54:50;98705.19;;;15.70;100.00
48846;BME280;34665;51.886;5.436;2023-03-14T02:57:16;98688.81;;;15.96;100.00
48846;BME280;34665;51.886;5.436;2023-03-14T02:59:41;98690.69;;;15.66;100.00
48846;BME280;34665;51.886;5.436;2023-03-14T03:02:12;98701.59;;;15.80;100.00
48846;BME280;34665;51.886;5.436;2023-03-14T03:04:38;98686.06;;;15.67;100.00
48846;BME280;34665;51.886;5.436;2023-03-14T03:07:03;98694.09;;;15.77;100.00
48846;BME280;34665;51.886;5.436;2023-03-14T03:09:29;98681.13;;;15.79;100.00
48846;BME280;34665;51.886;5.436;2023-03-14T03:11:55;98682.03;;;15.69;100.00
48846;BME280;34665;51.886;5.436;2023-03-14T03:14:23;98689.63;;;15.62;100.00
48846;BME280;34665;51.886;5.436;2023-03-14T03:16:49;98687.34;;;16.09;100.00
48846;BME280;34665;51.886;5.436;2023-03-14T03:19:14;98681.50;;;16.02;100.00
48846;BME280;34665;51.886;5.436;2023-03-14T03:21:41;98677.91;;;16.12;100.00
48846;BME280;34665;51.886;5.436;2023-03-14T03:24:06;98685.22;;;16.06;100.00
48846;BME280;34665;51.886;5.436;2023-03-14T03:26:33;98675.66;;;15.95;100.00
48846;BME280;34665;51.886;5.436;2023-03-14T03:29:03;98697.91;;;15.71;100.00
48846;BME280;34665;51.886;5.436;2023-03-14T03:31:28;98686.47;;;15.84;100.00
48846;BME280;34665;51.886;5.436;2023-03-14T03:33:54;98691.06;;;15.84;100.00
48846;BME280;34665;51.886;5.436;2023-03-14T03:36:23;98687.19;;;16.25;100.00
48846;BME280;34665;51.886;5.436;2023-03-14T03:38:48;98687.47;;;15.99;100.00
48846;BME280;34665;51.886;5.436;2023-03-14T03:41:14;98670.09;;;16.59;100.00
48846;BME280;34665;51.886;5.436;2023-03-14T03:43:40;98674.91;;;16.13;100.00
48846;BME280;34665;51.886;5.436;2023-03-14T03:46:08;98685.28;;;16.01;100.00
48846;BME280;34665;51.886;5.436;2023-03-14T03:48:34;98667.19;;;16.01;100.00
48846;BME280;34665;51.886;5.436;2023-03-14T03:51:02;98667.03;;;15.87;100.00
48846;BME280;34665;51.886;5.436;2023-03-14T03:53:29;98669.75;;;15.53;100.00
48846;BME280;34665;51.886;5.436;2023-03-14T03:55:54;98664.78;;;15.70;100.00
48846;BME280;34665;51.886;5.436;2023-03-14T03:58:20;98677.19;;;15.31;100.00
48846;BME280;34665;51.886;5.436;2023-03-14T04:00:45;98653.84;;;15.56;100.00
48846;BME280;34665;51.886;5.436;2023-03-14T04:03:11;98656.03;;;15.54;100.00
48846;BME280;34665;51.886;5.436;2023-03-14T04:05:37;98679.19;;;15.55;100.00
48846;BME280;34665;51.886;5.436;2023-03-14T04:08:07;98692.44;;;15.81;100.00
48846;BME280;34665;51.886;5.436;2023-03-14T04:10:34;98671.88;;;15.96;100.00
48846;BME280;34665;51.886;5.436;2023-03-14T04:13:04;98668.56;;;16.28;100.00
48846;BME280;34665;51.886;5.436;2023-03-14T04:15:32;98682.53;;;16.06;100.00
48846;BME280;34665;51.886;5.436;2023-03-14T04:18:01;98669.78;;;15.82;100.00
48846;BME280;34665;51.886;5.436;2023-03-14T04:20:29;98675.28;;;15.67;100.00
48846;BME280;34665;51.886;5.436;2023-03-14T04:22:54;98677.81;;;15.87;100.00
48846;BME280;34665;51.886;5.436;2023-03-14T04:25:19;98665.44;;;16.16;100.00
48846;BME280;34665;51.886;5.436;2023-03-14T04:27:50;98662.25;;;16.38;100.00
48846;BME280;34665;51.886;5.436;2023-03-14T04:30:21;98672.19;;;16.13;100.00
48846;BME280;34665;51.886;5.436;2023-03-14T04:32:51;98659.72;;;16.23;100.00
48846;BME280;34665;51.886;5.436;2023-03-14T04:35:18;98670.50;;;16.23;100.00
48846;BME280;34665;51.886;5.436;2023-03-14T04:37:44;98659.47;;;15.95;100.00
48846;BME280;34665;51.886;5.436;2023-03-14T04:40:12;98669.31;;;15.75;100.00
48846;BME280;34665;51.886;5.436;2023-03-14T04:42:38;98656.31;;;15.82;100.00
48846;BME280;34665;51.886;5.436;2023-03-14T04:45:04;98664.34;;;15.93;100.00
48846;BME280;34665;51.886;5.436;2023-03-14T04:47:31;98654.47;;;16.07;100.00
48846;BME280;34665;51.886;5.436;2023-03-14T04:49:57;98670.09;;;16.10;100.00
48846;BME280;34665;51.886;5.436;2023-03-14T04:52:24;98666.34;;;16.06;100.00
48846;BME280;34665;51.886;5.436;2023-03-14T04:54:50;98658.84;;;16.52;100.00
48846;BME280;34665;51.886;5.436;2023-03-14T04:57:17;98641.16;;;15.86;100.00
48846;BME280;34665;51.886;5.436;2023-03-14T04:59:43;98661.16;;;16.15;100.00
48846;BME280;34665;51.886;5.436;2023-03-14T05:02:21;98648.63;;;16.00;100.00
48846;BME280;34665;51.886;5.436;2023-03-14T05:05:06;98632.41;;;16.05;100.00
48846;BME280;34665;51.886;5.436;2023-03-14T05:08:01;98645.47;;;15.93;100.00
48846;BME280;34665;51.886;5.436;2023-03-14T05:10:53;98640.97;;;15.77;100.00
48846;BME280;34665;51.886;5.436;2023-03-14T05:13:35;98639.50;;;16.20;100.00
48846;BME280;34665;51.886;5.436;2023-03-14T05:16:11;98643.53;;;16.23;100.00
48846;BME280;34665;51.886;5.436;2023-03-14T05:18:57;98633.22;;;16.05;100.00
48846;BME280;34665;51.886;5.436;2023-03-14T05:21:37;98632.09;;;15.77;100.00
48846;BME280;34665;51.886;5.436;2023-03-14T05:24:38;98644.09;;;15.60;100.00
48846;BME280;34665;51.886;5.436;2023-03-14T05:27:26;98640.38;;;15.56;100.00
48846;BME280;34665;51.886;5.436;2023-03-14T05:30:27;98633.91;;;15.87;100.00
48846;BME280;34665;51.886;5.436;2023-03-14T05:33:16;98631.72;;;15.59;100.00
48846;BME280;34665;51.886;5.436;2023-03-14T05:35:51;98639.03;;;15.88;100.00
48846;BME280;34665;51.886;5.436;2023-03-14T05:38:36;98628.13;;;15.69;100.00
48846;BME280;34665;51.886;5.436;2023-03-14T05:41:22;98634.53;;;15.44;100.00
48846;BME280;34665;51.886;5.436;2023-03-14T05:44:02;98647.41;;;15.52;100.00
48846;BME280;34665;51.886;5.436;2023-03-14T05:46:56;98630.03;;;15.69;100.00
48846;BME280;34665;51.886;5.436;2023-03-14T05:49:31;98643.16;;;15.46;100.00
48846;BME280;34665;51.886;5.436;2023-03-14T05:51:57;98627.38;;;15.63;100.00
48846;BME280;34665;51.886;5.436;2023-03-14T05:54:22;98630.88;;;15.64;100.00
48846;BME280;34665;51.886;5.436;2023-03-14T05:57:14;98618.94;;;15.41;100.00
48846;BME280;34665;51.886;5.436;2023-03-14T05:59:57;98617.84;;;15.47;100.00
48846;BME280;34665;51.886;5.436;2023-03-14T06:02:43;98634.38;;;15.65;100.00
48846;BME280;34665;51.886;5.436;2023-03-14T06:05:18;98620.69;;;15.26;100.00
48846;BME280;34665;51.886;5.436;2023-03-14T06:07:43;98612.50;;;15.37;100.00
48846;BME280;34665;51.886;5.436;2023-03-14T06:10:10;98620.25;;;15.78;100.00
48846;BME280;34665;51.886;5.436;2023-03-14T06:12:36;98608.72;;;15.03;100.00
48846;BME280;34665;51.886;5.436;2023-03-14T06:15:01;98641.72;;;15.19;100.00
48846;BME280;34665;51.886;5.436;2023-03-14T06:17:27;98621.84;;;15.15;100.00
48846;BME280;34665;51.886;5.436;2023-03-14T06:20:00;98637.38;;;15.28;100.00
48846;BME280;34665;51.886;5.436;2023-03-14T06:22:25;98626.38;;;15.19;100.00
48846;BME280;34665;51.886;5.436;2023-03-14T06:24:52;98635.59;;;15.48;100.00
48846;BME280;34665;51.886;5.436;2023-03-14T06:27:18;98616.13;;;15.22;100.00
48846;BME280;34665;51.886;5.436;2023-03-14T06:29:43;98617.91;;;15.37;100.00
48846;BME280;34665;51.886;5.436;2023-03-14T06:32:09;98625.03;;;15.17;100.00
48846;BME280;34665;51.886;5.436;2023-03-14T06:34:36;98617.66;;;15.33;100.00
48846;BME280;34665;51.886;5.436;2023-03-14T06:37:01;98617.28;;;15.50;100.00
48846;BME280;34665;51.886;5.436;2023-03-14T06:39:27;98623.06;;;15.62;100.00
48846;BME280;34665;51.886;5.436;2023-03-14T06:42:01;98626.06;;;15.61;100.00
48846;BME280;34665;51.886;5.436;2023-03-14T06:44:26;98621.88;;;15.44;100.00
48846;BME280;34665;51.886;5.436;2023-03-14T06:46:51;98617.13;;;15.36;100.00
48846;BME280;34665;51.886;5.436;2023-03-14T06:49:17;98633.28;;;15.66;100.00
48846;BME280;34665;51.886;5.436;2023-03-14T06:51:43;98637.53;;;15.42;100.00
48846;BME280;34665;51.886;5.436;2023-03-14T06:54:10;98699.84;;;15.65;100.00
48846;BME280;34665;51.886;5.436;2023-03-14T06:56:36;98711.66;;;15.69;100.00
48846;BME280;34665;51.886;5.436;2023-03-14T06:59:02;98716.44;;;16.66;100.00
48846;BME280;34665;51.886;5.436;2023-03-14T07:01:30;98726.09;;;15.89;100.00
48846;BME280;34665;51.886;5.436;2023-03-14T07:04:04;98739.53;;;16.24;100.00
48846;BME280;34665;51.886;5.436;2023-03-14T07:06:30;98750.84;;;16.26;100.00
48846;BME280;34665;51.886;5.436;2023-03-14T07:08:56;98752.88;;;16.10;100.00
48846;BME280;34665;51.886;5.436;2023-03-14T07:11:22;98759.22;;;15.89;100.00
48846;BME280;34665;51.886;5.436;2023-03-14T07:13:49;98768.63;;;16.27;100.00
48846;BME280;34665;51.886;5.436;2023-03-14T07:16:14;98771.09;;;15.88;100.00
48846;BME280;34665;51.886;5.436;2023-03-14T07:18:39;98774.53;;;16.29;100.00
48846;BME280;34665;51.886;5.436;2023-03-14T07:21:06;98780.28;;;15.82;100.00
48846;BME280;34665;51.886;5.436;2023-03-14T07:23:31;98791.66;;;16.14;100.00
48846;BME280;34665;51.886;5.436;2023-03-14T07:25:57;98803.63;;;15.57;100.00
48846;BME280;34665;51.886;5.436;2023-03-14T07:28:24;98804.84;;;15.81;100.00
48846;BME280;34665;51.886;5.436;2023-03-14T07:30:56;98814.44;;;15.97;100.00
48846;BME280;34665;51.886;5.436;2023-03-14T07:33:27;98826.50;;;16.05;100.00
48846;BME280;34665;51.886;5.436;2023-03-14T07:35:53;98837.84;;;16.02;100.00
48846;BME280;34665;51.886;5.436;2023-03-14T07:38:18;98828.34;;;15.65;100.00
48846;BME280;34665;51.886;5.436;2023-03-14T07:41:03;98837.22;;;15.70;100.00
48846;BME280;34665;51.886;5.436;2023-03-14T07:43:33;98849.00;;;15.90;100.00
48846;BME280;34665;51.886;5.436;2023-03-14T07:45:59;98866.22;;;15.33;100.00
48846;BME280;34665;51.886;5.436;2023-03-14T07:48:25;98870.59;;;15.74;100.00
48846;BME280;34665;51.886;5.436;2023-03-14T07:50:52;98883.16;;;16.00;100.00
48846;BME280;34665;51.886;5.436;2023-03-14T07:53:18;98891.75;;;15.46;100.00
48846;BME280;34665;51.886;5.436;2023-03-14T07:55:44;98886.09;;;15.43;100.00
48846;BME280;34665;51.886;5.436;2023-03-14T07:58:10;98915.09;;;15.72;100.00
48846;BME280;34665;51.886;5.436;2023-03-14T08:00:35;98919.47;;;15.57;100.00
48846;BME280;34665;51.886;5.436;2023-03-14T08:03:01;98937.53;;;15.52;100.00
48846;BME280;34665;51.886;5.436;2023-03-14T08:05:26;98936.78;;;16.07;100.00
48846;BME280;34665;51.886;5.436;2023-03-14T08:07:52;98941.22;;;16.27;100.00
48846;BME280;34665;51.886;5.436;2023-03-14T08:10:17;98947.88;;;16.00;100.00
48846;BME280;34665;51.886;5.436;2023-03-14T08:12:46;98955.63;;;16.12;100.00
48846;BME280;34665;51.886;5.436;2023-03-14T08:15:11;98963.28;;;16.34;100.00
48846;BME280;34665;51.886;5.436;2023-03-14T08:17:37;98975.03;;;16.54;100.00
48846;BME280;34665;51.886;5.436;2023-03-14T08:20:02;98986.03;;;16.23;100.00
48846;BME280;34665;51.886;5.436;2023-03-14T08:22:31;98988.00;;;16.01;100.00
48846;BME280;34665;51.886;5.436;2023-03-14T08:24:57;98995.94;;;15.67;100.00
48846;BME280;34665;51.886;5.436;2023-03-14T08:27:22;99009.81;;;16.10;100.00
48846;BME280;34665;51.886;5.436;2023-03-14T08:29:48;99006.16;;;15.75;100.00
48846;BME280;34665;51.886;5.436;2023-03-14T08:32:13;99024.34;;;16.14;100.00
48846;BME280;34665;51.886;5.436;2023-03-14T08:34:40;99044.09;;;15.99;100.00
48846;BME280;34665;51.886;5.436;2023-03-14T08:37:06;99050.44;;;15.48;100.00
48846;BME280;34665;51.886;5.436;2023-03-14T08:39:31;99057.44;;;15.49;100.00
48846;BME280;34665;51.886;5.436;2023-03-14T08:41:56;99075.75;;;15.52;100.00
48846;BME280;34665;51.886;5.436;2023-03-14T08:44:22;99087.59;;;15.46;100.00
48846;BME280;34665;51.886;5.436;2023-03-14T08:46:47;99105.34;;;14.90;100.00
48846;BME280;34665;51.886;5.436;2023-03-14T08:49:13;99132.53;;;15.04;100.00
48846;BME280;34665;51.886;5.436;2023-03-14T08:51:40;99135.47;;;14.92;100.00
48846;BME280;34665;51.886;5.436;2023-03-14T08:54:05;99148.41;;;14.85;100.00
48846;BME280;34665;51.886;5.436;2023-03-14T08:56:30;99163.47;;;14.96;100.00
48846;BME280;34665;51.886;5.436;2023-03-14T08:58:56;99175.03;;;14.86;100.00
48846;BME280;34665;51.886;5.436;2023-03-14T09:01:21;99198.47;;;14.91;100.00
48846;BME280;34665;51.886;5.436;2023-03-14T09:03:49;99190.38;;;14.27;100.00
48846;BME280;34665;51.886;5.436;2023-03-14T09:06:15;99211.75;;;14.55;100.00
48846;BME280;34665;51.886;5.436;2023-03-14T09:08:42;99209.28;;;15.17;100.00
48846;BME280;34665;51.886;5.436;2023-03-14T09:11:08;99212.06;;;15.48;100.00
48846;BME280;34665;51.886;5.436;2023-03-14T09:13:34;99225.25;;;15.65;100.00
48846;BME280;34665;51.886;5.436;2023-03-14T09:16:00;99232.81;;;16.10;100.00
48846;BME280;34665;51.886;5.436;2023-03-14T09:18:26;99246.03;;;15.70;100.00
48846;BME280;34665;51.886;5.436;2023-03-14T09:20:51;99270.81;;;15.82;100.00
48846;BME280;34665;51.886;5.436;2023-03-14T09:23:17;99277.31;;;15.97;100.00
48846;BME280;34665;51.886;5.436;2023-03-14T09:25:43;99280.78;;;16.39;100.00
48846;BME280;34665;51.886;5.436;2023-03-14T09:28:08;99292.41;;;16.13;100.00
48846;BME280;34665;51.886;5.436;2023-03-14T09:30:33;99303.09;;;16.81;100.00
48846;BME280;34665;51.886;5.436;2023-03-14T09:32:58;99328.44;;;17.00;100.00
48846;BME280;34665;51.886;5.436;2023-03-14T09:35:24;99331.94;;;16.96;100.00
48846;BME280;34665;51.886;5.436;2023-03-14T09:37:50;99347.28;;;17.21;100.00
48846;BME280;34665;51.886;5.436;2023-03-14T09:40:17;99354.97;;;16.57;100.00
48846;BME280;34665;51.886;5.436;2023-03-14T09:42:43;99357.69;;;16.15;100.00
48846;BME280;34665;51.886;5.436;2023-03-14T09:45:51;99379.53;;;16.03;100.00
48846;BME280;34665;51.886;5.436;2023-03-14T09:47:58;99392.47;;;16.48;100.00
48846;BME280;34665;51.886;5.436;2023-03-14T09:50:24;99400.56;;;16.07;100.00
48846;BME280;34665;51.886;5.436;2023-03-14T09:53:02;99407.06;;;16.73;100.00
48846;BME280;34665;51.886;5.436;2023-03-14T09:55:28;99420.81;;;16.45;100.00
48846;BME280;34665;51.886;5.436;2023-03-14T09:57:55;99431.59;;;16.19;100.00
48846;BME280;34665;51.886;5.436;2023-03-14T10:00:22;99445.38;;;16.28;100.00
48846;BME280;34665;51.886;5.436;2023-03-14T10:05:18;99451.56;;;16.44;100.00
48846;BME280;34665;51.886;5.436;2023-03-14T10:07:44;99457.78;;;16.71;100.00
48846;BME280;34665;51.886;5.436;2023-03-14T10:10:11;99468.31;;;16.67;100.00
48846;BME280;34665;51.886;5.436;2023-03-14T10:12:39;99478.56;;;16.55;100.00
48846;BME280;34665;51.886;5.436;2023-03-14T10:15:08;99484.22;;;16.43;100.00
48846;BME280;34665;51.886;5.436;2023-03-14T10:17:38;99496.66;;;16.70;100.00
48846;BME280;34665;51.886;5.436;2023-03-14T10:20:04;99514.47;;;17.17;100.00
48846;BME280;34665;51.886;5.436;2023-03-14T10:22:30;99527.69;;;17.55;100.00
48846;BME280;34665;51.886;5.436;2023-03-14T10:25:01;99542.00;;;17.51;100.00
48846;BME280;34665;51.886;5.436;2023-03-14T10:27:31;99535.91;;;18.00;100.00
48846;BME280;34665;51.886;5.436;2023-03-14T10:30:00;99551.19;;;17.55;100.00
48846;BME280;34665;51.886;5.436;2023-03-14T10:32:33;99558.84;;;18.24;100.00
48846;BME280;34665;51.886;5.436;2023-03-14T10:35:04;99572.19;;;19.00;88.19
48846;BME280;34665;51.886;5.436;2023-03-14T10:37:29;99582.91;;;18.75;94.58
48846;BME280;34665;51.886;5.436;2023-03-14T10:39:58;99596.72;;;18.74;93.06
48846;BME280;34665;51.886;5.436;2023-03-14T10:42:34;99607.06;;;17.90;95.80
48846;BME280;34665;51.886;5.436;2023-03-14T10:45:01;99628.41;;;16.94;100.00
48846;BME280;34665;51.886;5.436;2023-03-14T10:47:27;99658.66;;;16.85;100.00
48846;BME280;34665;51.886;5.436;2023-03-14T10:49:56;99658.59;;;16.59;100.00
48846;BME280;34665;51.886;5.436;2023-03-14T10:52:26;99667.66;;;16.38;100.00
48846;BME280;34665;51.886;5.436;2023-03-14T10:54:54;99663.94;;;15.96;100.00
48846;BME280;34665;51.886;5.436;2023-03-14T10:57:20;99672.84;;;15.96;100.00
48846;BME280;34665;51.886;5.436;2023-03-14T10:59:46;99688.81;;;16.61;100.00
48846;BME280;34665;51.886;5.436;2023-03-14T11:05:10;99717.38;;;17.16;100.00
48846;BME280;34665;51.886;5.436;2023-03-14T11:07:43;99730.38;;;17.76;95.71
48846;BME280;34665;51.886;5.436;2023-03-14T11:13:05;99742.31;;;18.92;90.41
48846;BME280;34665;51.886;5.436;2023-03-14T11:23:13;99786.09;;;18.34;83.43
48846;BME280;34665;51.886;5.436;2023-03-14T11:25:58;99779.59;;;17.62;90.24
48846;BME280;34665;51.886;5.436;2023-03-14T11:28:32;99783.88;;;17.38;91.78
48846;BME280;34665;51.886;5.436;2023-03-14T11:31:04;99794.31;;;17.03;94.07
48846;BME280;34665;51.886;5.436;2023-03-14T11:38:29;99814.28;;;18.23;88.41
48846;BME280;34665;51.886;5.436;2023-03-14T11:40:59;99820.22;;;18.25;88.16
48846;BME280;34665;51.886;5.436;2023-03-14T11:43:29;99831.00;;;18.61;81.54
48846;BME280;34665;51.886;5.436;2023-03-14T11:45:58;99838.31;;;18.60;78.00
48846;BME280;34665;51.886;5.436;2023-03-14T11:48:56;99853.47;;;18.61;79.71
48846;BME280;34665;51.886;5.436;2023-03-14T11:51:24;99857.66;;;19.19;74.90
48846;BME280;34665;51.886;5.436;2023-03-14T11:59:16;99879.50;;;23.13;55.45
48846;BME280;34665;51.886;5.436;2023-03-14T12:04:13;99896.13;;;24.49;46.61
48846;BME280;34665;51.886;5.436;2023-03-14T12:06:46;99916.69;;;25.68;44.62
48846;BME280;34665;51.886;5.436;2023-03-14T12:09:12;99909.13;;;25.91;44.89
48846;BME280;34665;51.886;5.436;2023-03-14T12:11:40;99917.34;;;25.16;42.10
48846;BME280;34665;51.886;5.436;2023-03-14T12:19:29;99932.50;;;26.15;41.26
48846;BME280;34665;51.886;5.436;2023-03-14T12:22:00;99940.06;;;25.25;42.21
48846;BME280;34665;51.886;5.436;2023-03-14T12:24:27;99938.78;;;26.25;38.97
48846;BME280;34665;51.886;5.436;2023-03-14T12:26:55;99961.22;;;23.97;43.67
48846;BME280;34665;51.886;5.436;2023-03-14T12:29:21;99961.63;;;25.18;38.82
48846;BME280;34665;51.886;5.436;2023-03-14T12:32:20;99962.16;;;26.48;38.80
48846;BME280;34665;51.886;5.436;2023-03-14T12:34:40;99981.09;;;27.97;31.95
48846;BME280;34665;51.886;5.436;2023-03-14T12:42:20;99982.16;;;27.83;35.69
48846;BME280;34665;51.886;5.436;2023-03-14T12:44:48;99986.13;;;26.87;34.50
48846;BME280;34665;51.886;5.436;2023-03-14T12:49:49;99999.88;;;28.37;34.86
48846;BME280;34665;51.886;5.436;2023-03-14T12:52:22;100013.63;;;29.04;33.93
48846;BME280;34665;51.886;5.436;2023-03-14T12:55:13;100006.81;;;29.48;33.30
48846;BME280;34665;51.886;5.436;2023-03-14T12:57:47;100012.47;;;27.96;31.00
48846;BME280;34665;51.886;5.436;2023-03-14T13:00:20;100014.44;;;28.16;31.65
48846;BME280;34665;51.886;5.436;2023-03-14T13:02:46;100034.25;;;28.98;29.17
48846;BME280;34665;51.886;5.436;2023-03-14T13:05:15;100039.94;;;28.81;30.06
48846;BME280;34665;51.886;5.436;2023-03-14T13:12:37;100063.69;;;30.18;26.18
48846;BME280;34665;51.886;5.436;2023-03-14T13:15:12;100072.88;;;29.36;25.56
48846;BME280;34665;51.886;5.436;2023-03-14T13:17:39;100062.84;;;30.02;31.21
48846;BME280;34665;51.886;5.436;2023-03-14T13:20:09;100079.78;;;29.42;26.20
48846;BME280;34665;51.886;5.436;2023-03-14T13:22:38;100078.88;;;29.87;30.71
48846;BME280;34665;51.886;5.436;2023-03-14T13:25:10;100092.19;;;31.21;25.35
48846;BME280;34665;51.886;5.436;2023-03-14T13:27:36;100095.44;;;31.39;28.81
48846;BME280;34665;51.886;5.436;2023-03-14T13:30:05;100103.34;;;31.88;28.11
48846;BME280;34665;51.886;5.436;2023-03-14T13:32:39;100109.91;;;32.00;27.28
48846;BME280;34665;51.886;5.436;2023-03-14T13:35:14;100126.84;;;32.14;26.05
48846;BME280;34665;51.886;5.436;2023-03-14T13:37:39;100131.91;;;33.03;24.61
48846;BME280;34665;51.886;5.436;2023-03-14T13:40:17;100130.94;;;32.21;24.60
48846;BME280;34665;51.886;5.436;2023-03-14T13:42:43;100137.31;;;31.73;27.34
48846;BME280;34665;51.886;5.436;2023-03-14T13:45:09;100154.19;;;31.23;28.91
48846;BME280;34665;51.886;5.436;2023-03-14T13:47:37;100154.66;;;31.25;26.62
48846;BME280;34665;51.886;5.436;2023-03-14T13:50:04;100173.06;;;31.50;25.04
48846;BME280;34665;51.886;5.436;2023-03-14T13:52:37;100175.47;;;30.94;22.84
48846;BME280;34665;51.886;5.436;2023-03-14T13:55:03;100180.00;;;29.62;28.22